createdAt,value
2023-10-10T00:02:34.608Z,94.24
2023-10-10T00:06:21.008Z,93.79
2023-10-10T00:10:30.207Z,95.64
2023-10-10T00:15:11.034Z,95.08
2023-10-10T00:19:20.927Z,95.79
2023-10-10T00:23:26.176Z,96.51
2023-10-10T00:27:49.905Z,96.30
2023-10-10T00:32:19.466Z,95.83
2023-10-10T00:36:43.974Z,95.65
2023-10-10T00:40:56.765Z,95.08
2023-10-10T00:45:41.314Z,95.41
2023-10-10T00:50:25.740Z,95.42
2023-10-10T00:54:53.004Z,95.05
2023-10-10T00:59:02.155Z,95.04
2023-10-10T01:03:36.818Z,94.89
2023-10-10T01:08:02.840Z,94.54
2023-10-10T01:12:47.298Z,94.50
2023-10-10T01:16:44.294Z,94.18
2023-10-10T01:20:58.910Z,94.51
2023-10-10T01:25:23.572Z,93.93
2023-10-10T01:29:47.656Z,93.87
2023-10-10T01:34:13.904Z,94.07
2023-10-10T01:38:23.691Z,94.21
2023-10-10T01:42:27.834Z,93.84
2023-10-10T01:47:01.475Z,95.20
2023-10-10T01:51:48.580Z,94.37
2023-10-10T01:55:19.130Z,94.48
2023-10-10T01:59:23.157Z,94.39
2023-10-10T02:03:49.008Z,95.17
2023-10-10T02:08:15.551Z,95.29
2023-10-10T02:12:27.355Z,95.92
2023-10-10T02:17:41.649Z,95.79
2023-10-10T02:22:26.576Z,96.74
2023-10-10T02:27:10.155Z,96.17
2023-10-10T02:31:15.823Z,96.78
2023-10-10T02:35:32.136Z,96.94
2023-10-10T02:39:57.858Z,96.16
2023-10-10T02:43:55.148Z,96.78
2023-10-10T02:48:33.162Z,96.91
2023-10-10T02:52:34.636Z,98.38
2023-10-10T02:57:06.548Z,97.71
2023-10-10T03:01:23.138Z,97.89
2023-10-10T03:05:38.207Z,98.14
2023-10-10T03:10:01.147Z,98.39
2023-10-10T03:14:47.892Z,97.34
2023-10-10T03:19:22.899Z,97.79
2023-10-10T03:23:54.619Z,98.10
2023-10-10T03:28:44.584Z,97.38
2023-10-10T03:32:57.842Z,98.09
2023-10-10T03:37:08.711Z,97.06
2023-10-10T03:41:46.591Z,97.04
2023-10-10T03:45:49.372Z,97.19
2023-10-10T03:50:29.478Z,96.89
2023-10-10T03:55:13.194Z,96.30
2023-10-10T03:59:36.256Z,95.57
2023-10-10T04:04:25.962Z,95.80
2023-10-10T04:09:09.931Z,95.49
2023-10-10T04:13:52.819Z,95.61
2023-10-10T04:18:16.093Z,95.58
2023-10-10T04:22:59.020Z,97.82
2023-10-10T04:27:41.634Z,97.14
2023-10-10T04:32:23.183Z,96.98
2023-10-10T04:36:53.536Z,97.29
2023-10-10T04:41:37.638Z,96.59
2023-10-10T04:46:01.112Z,96.43
2023-10-10T04:49:52.525Z,95.84
2023-10-10T04:54:33.449Z,95.78
2023-10-10T04:59:17.152Z,95.86
2023-10-10T05:03:58.193Z,95.92
2023-10-10T05:08:26.085Z,96.32
2023-10-10T05:12:50.912Z,96.72
2023-10-10T05:17:35.243Z,97.15
2023-10-10T05:22:25.576Z,96.10
2023-10-10T05:26:48.978Z,96.44
2023-10-10T05:30:40.729Z,96.65
2023-10-10T05:34:30.618Z,96.61
2023-10-10T05:38:17.969Z,96.45
2023-10-10T05:41:57.914Z,96.27
2023-10-10T05:46:05.273Z,95.97
2023-10-10T05:50:03.781Z,95.80
2023-10-10T05:53:34.362Z,95.68
2023-10-10T05:57:40.290Z,95.51
2023-10-10T06:01:29.863Z,95.28
2023-10-10T06:05:32.668Z,94.98
2023-10-10T06:09:27.955Z,95.02
2023-10-10T06:13:30.065Z,94.86
2023-10-10T06:17:14.703Z,94.74
2023-10-10T06:21:10.083Z,94.72
2023-10-10T06:24:51.262Z,94.29
2023-10-10T06:28:45.727Z,94.01
2023-10-10T06:32:49.985Z,93.81
2023-10-10T06:36:22.850Z,93.54
2023-10-10T06:39:56.107Z,93.53
2023-10-10T06:43:27.288Z,93.36
2023-10-10T06:46:52.164Z,93.24
2023-10-10T06:50:40.263Z,93.06
2023-10-10T06:54:30.066Z,92.67
2023-10-10T06:58:15.607Z,92.57
2023-10-10T07:02:23.255Z,92.61
2023-10-10T07:05:52.211Z,92.75
2023-10-10T07:09:43.232Z,92.76
2023-10-10T07:13:20.155Z,92.81
2023-10-10T07:17:18.623Z,92.87
2023-10-10T07:21:19.499Z,92.39
2023-10-10T07:24:57.143Z,91.60
2023-10-10T07:29:01.286Z,90.91
2023-10-10T07:32:33.416Z,90.94
2023-10-10T07:36:02.447Z,90.46
2023-10-10T07:39:34.363Z,89.55
2023-10-10T07:43:05.099Z,89.43
2023-10-10T07:46:38.254Z,89.16
2023-10-10T07:50:21.457Z,88.86
2023-10-10T07:53:45.146Z,87.44
2023-10-10T07:57:24.531Z,87.38
2023-10-10T08:01:11.628Z,87.34
2023-10-10T08:04:41.598Z,86.51
2023-10-10T08:08:15.185Z,85.28
2023-10-10T08:11:41.894Z,83.93
2023-10-10T08:15:39.050Z,83.80
2023-10-10T08:19:38.792Z,84.58
2023-10-10T08:23:03.841Z,84.21
2023-10-10T08:26:45.085Z,82.83
2023-10-10T08:30:15.880Z,83.03
2023-10-10T08:33:46.329Z,84.13
2023-10-10T08:37:16.549Z,83.36
2023-10-10T08:40:58.034Z,81.20
2023-10-10T08:44:23.719Z,83.44
2023-10-10T08:47:57.837Z,82.63
2023-10-10T08:51:33.867Z,82.35
2023-10-10T08:55:15.223Z,84.23
2023-10-10T08:58:43.688Z,84.51
2023-10-10T09:02:21.537Z,84.38
2023-10-10T09:05:54.416Z,84.40
2023-10-10T09:09:40.829Z,84.77
2023-10-10T09:13:11.744Z,84.93
2023-10-10T09:16:46.540Z,84.85
2023-10-10T09:20:24.373Z,85.50
2023-10-10T09:24:29.388Z,85.90
2023-10-10T09:28:06.012Z,86.28
2023-10-10T09:31:34.045Z,85.70
2023-10-10T09:35:38.410Z,84.91
2023-10-10T09:39:29.538Z,84.16
2023-10-10T09:43:05.506Z,83.01
2023-10-10T09:46:21.311Z,81.76
2023-10-10T09:49:54.123Z,81.50
2023-10-10T09:53:23.202Z,81.13
2023-10-10T09:56:52.556Z,78.75
2023-10-10T10:00:32.644Z,78.58
2023-10-10T10:04:05.289Z,76.99
2023-10-10T10:07:37.251Z,77.44
2023-10-10T10:11:19.646Z,77.31
2023-10-10T10:15:24.628Z,77.37
2023-10-10T10:18:50.953Z,75.36
2023-10-10T10:22:28.422Z,75.76
2023-10-10T10:26:07.863Z,75.15
2023-10-10T10:29:39.011Z,76.10
2023-10-10T10:33:14.454Z,76.31
2023-10-10T10:37:29.671Z,76.93
2023-10-10T10:41:06.885Z,76.04
2023-10-10T10:44:46.901Z,74.88
2023-10-10T10:48:36.166Z,73.43
2023-10-10T10:52:20.523Z,75.33
2023-10-10T10:56:15.738Z,75.09
2023-10-10T11:00:02.131Z,75.07
2023-10-10T11:03:25.733Z,74.75
2023-10-10T11:07:02.938Z,73.58
2023-10-10T11:10:51.940Z,72.78
2023-10-10T11:14:33.610Z,73.14
2023-10-10T11:18:36.978Z,74.14
2023-10-10T11:22:40.453Z,73.76
2023-10-10T11:26:10.220Z,74.71
2023-10-10T11:30:03.705Z,73.11
2023-10-10T11:34:13.573Z,71.85
2023-10-10T11:38:37.320Z,70.15
2023-10-10T11:42:05.257Z,70.97
2023-10-10T11:45:33.515Z,71.18
2023-10-10T11:48:56.887Z,72.57
2023-10-10T11:52:38.856Z,73.11
2023-10-10T11:56:03.944Z,73.23
2023-10-10T11:59:40.378Z,73.34
2023-10-10T12:03:08.685Z,72.42
2023-10-10T12:06:43.190Z,72.69
2023-10-10T12:10:17.497Z,73.48
2023-10-10T12:14:08.920Z,73.66
2023-10-10T12:17:41.491Z,74.33
2023-10-10T12:21:20.865Z,73.92
2023-10-10T12:24:52.048Z,74.82
2023-10-10T12:28:37.558Z,74.72
2023-10-10T12:32:16.564Z,74.71
2023-10-10T12:35:48.729Z,74.92
2023-10-10T12:39:06.562Z,74.10
2023-10-10T12:42:33.484Z,74.15
2023-10-10T12:46:41.279Z,73.86
2023-10-10T12:50:07.167Z,73.80
2023-10-10T12:53:40.564Z,73.08
2023-10-10T12:57:15.615Z,73.04
2023-10-10T13:00:41.952Z,73.47
2023-10-10T13:04:11.314Z,73.24
2023-10-10T13:07:43.192Z,73.27
2023-10-10T13:11:21.312Z,74.70
2023-10-10T13:14:54.904Z,74.90
2023-10-10T13:18:33.992Z,74.90
2023-10-10T13:22:25.961Z,74.53
2023-10-10T13:25:58.468Z,74.20
2023-10-10T13:29:21.454Z,73.69
2023-10-10T13:32:45.263Z,73.47
2023-10-10T13:36:30.881Z,73.49
2023-10-10T13:39:57.385Z,72.95
2023-10-10T13:43:28.209Z,72.95
2023-10-10T13:46:58.136Z,72.41
2023-10-10T13:50:32.182Z,71.55
2023-10-10T13:53:57.815Z,72.47
2023-10-10T13:57:19.679Z,71.65
2023-10-10T14:00:54.976Z,69.87
2023-10-10T14:04:26.515Z,70.69
2023-10-10T14:07:52.521Z,71.25
2023-10-10T14:11:25.232Z,71.08
2023-10-10T14:15:10.139Z,70.15
2023-10-10T14:18:53.005Z,70.56
2023-10-10T14:22:28.713Z,70.76
2023-10-10T14:26:15.490Z,71.06
2023-10-10T14:29:59.035Z,71.73
2023-10-10T14:33:24.360Z,72.07
2023-10-10T14:36:55.111Z,72.47
2023-10-10T14:40:33.979Z,72.72
2023-10-10T14:44:02.659Z,73.14
2023-10-10T14:47:26.657Z,73.50
2023-10-10T14:50:57.058Z,73.90
2023-10-10T14:54:22.749Z,74.01
2023-10-10T14:57:50.678Z,74.41
2023-10-10T15:01:26.199Z,74.49
2023-10-10T15:05:11.474Z,74.90
2023-10-10T15:08:36.771Z,75.16
2023-10-10T15:12:06.486Z,75.33
2023-10-10T15:15:36.256Z,75.68
2023-10-10T15:19:03.708Z,76.02
2023-10-10T15:22:34.022Z,76.62
2023-10-10T15:26:07.456Z,76.80
2023-10-10T15:29:40.664Z,77.15
2023-10-10T15:33:23.640Z,77.81
2023-10-10T15:36:51.813Z,78.11
2023-10-10T15:40:41.867Z,78.38
2023-10-10T15:44:14.570Z,79.06
2023-10-10T15:47:50.603Z,79.31
2023-10-10T15:51:26.533Z,79.66
2023-10-10T15:54:53.972Z,79.87
2023-10-10T15:58:24.605Z,79.97
2023-10-10T16:01:59.720Z,80.63
2023-10-10T16:05:50.829Z,80.88
2023-10-10T16:09:22.478Z,81.32
2023-10-10T16:13:01.323Z,81.52
2023-10-10T16:16:35.904Z,81.94
2023-10-10T16:20:07.500Z,82.12
2023-10-10T16:23:51.381Z,82.33
2023-10-10T16:27:34.833Z,83.04
2023-10-10T16:31:35.810Z,83.47
2023-10-10T16:35:06.709Z,83.44
2023-10-10T16:38:37.467Z,83.95
2023-10-10T16:42:06.174Z,84.09
2023-10-10T16:45:37.561Z,84.04
2023-10-10T16:49:11.061Z,84.35
2023-10-10T16:53:10.867Z,84.71
2023-10-10T16:56:45.840Z,84.86
2023-10-10T17:00:24.918Z,85.76
2023-10-10T17:03:56.504Z,85.43
2023-10-10T17:07:37.223Z,85.27
2023-10-10T17:11:21.256Z,86.56
2023-10-10T17:15:01.890Z,86.21
2023-10-10T17:18:45.177Z,85.94
2023-10-10T17:22:11.336Z,85.81
2023-10-10T17:25:41.651Z,86.12
2023-10-10T17:29:13.165Z,86.13
2023-10-10T17:32:44.600Z,86.00
2023-10-10T17:36:29.277Z,86.25
2023-10-10T17:40:18.905Z,86.26
2023-10-10T17:43:55.771Z,86.14
2023-10-10T17:47:45.851Z,87.41
2023-10-10T17:51:18.934Z,86.90
2023-10-10T17:55:04.365Z,87.38
2023-10-10T17:58:32.266Z,87.07
2023-10-10T18:02:10.486Z,87.17
2023-10-10T18:05:58.516Z,87.23
2023-10-10T18:09:49.605Z,87.34
2023-10-10T18:13:18.947Z,87.19
2023-10-10T18:16:52.047Z,87.74
2023-10-10T18:20:24.492Z,88.06
2023-10-10T18:24:17.641Z,88.02
2023-10-10T18:27:54.759Z,89.54
2023-10-10T18:31:54.691Z,90.88
2023-10-10T18:35:21.293Z,89.26
2023-10-10T18:39:14.938Z,88.71
2023-10-10T18:43:00.941Z,88.80
2023-10-10T18:46:33.637Z,88.45
2023-10-10T18:50:22.857Z,88.32
2023-10-10T18:53:53.554Z,88.84
2023-10-10T18:57:20.843Z,88.74
2023-10-10T19:00:45.274Z,88.61
2023-10-10T19:04:30.916Z,88.83
2023-10-10T19:07:59.083Z,88.79
2023-10-10T19:11:28.773Z,88.88
2023-10-10T19:15:01.491Z,89.06
2023-10-10T19:18:46.261Z,89.08
2023-10-10T19:22:40.930Z,89.06
2023-10-10T19:26:14.910Z,89.48
2023-10-10T19:29:44.345Z,89.40
2023-10-10T19:33:37.797Z,89.62
2023-10-10T19:37:27.194Z,89.90
2023-10-10T19:40:55.337Z,90.08
2023-10-10T19:44:34.912Z,90.53
2023-10-10T19:48:08.670Z,90.57
2023-10-10T19:51:42.816Z,90.77
2023-10-10T19:55:32.417Z,91.21
2023-10-10T19:59:08.693Z,91.39
2023-10-10T20:02:38.134Z,92.29
2023-10-10T20:06:22.082Z,91.56
2023-10-10T20:09:54.144Z,91.36
2023-10-10T20:13:22.995Z,91.26
2023-10-10T20:17:03.263Z,91.19
2023-10-10T20:20:35.527Z,91.19
2023-10-10T20:24:24.205Z,91.18
2023-10-10T20:27:56.011Z,91.06
2023-10-10T20:31:23.547Z,91.11
2023-10-10T20:35:40.944Z,91.04
2023-10-10T20:39:47.005Z,90.96
2023-10-10T20:43:22.507Z,91.17
2023-10-10T20:46:54.943Z,91.62
2023-10-10T20:50:45.923Z,91.87
2023-10-10T20:54:18.951Z,91.34
2023-10-10T20:57:54.934Z,91.55
2023-10-10T21:02:03.947Z,91.14
2023-10-10T21:05:41.410Z,90.90
2023-10-10T21:09:39.169Z,91.45
2023-10-10T21:13:09.541Z,91.84
2023-10-10T21:16:37.648Z,91.92
2023-10-10T21:20:25.457Z,92.54
2023-10-10T21:23:56.713Z,92.32
2023-10-10T21:27:54.560Z,92.29
2023-10-10T21:31:56.424Z,92.40
2023-10-10T21:35:21.389Z,92.68
2023-10-10T21:39:19.927Z,92.43
2023-10-10T21:43:25.257Z,92.52
2023-10-10T21:47:30.758Z,92.46
2023-10-10T21:52:10.858Z,92.69
2023-10-10T21:55:52.460Z,92.49
2023-10-10T21:59:58.728Z,92.09
2023-10-10T22:04:05.598Z,92.36
2023-10-10T22:07:53.256Z,92.34
2023-10-10T22:12:20.476Z,93.32
2023-10-10T22:16:38.559Z,93.00
2023-10-10T22:20:46.639Z,93.00
2023-10-10T22:24:58.902Z,92.73
2023-10-10T22:29:04.283Z,93.15
2023-10-10T22:33:13.972Z,92.85
2023-10-10T22:37:27.686Z,92.93
2023-10-10T22:41:34.375Z,93.08
2023-10-10T22:45:47.918Z,93.00
2023-10-10T22:50:15.876Z,93.26
2023-10-10T22:54:44.286Z,93.42
2023-10-10T22:59:12.513Z,93.12
2023-10-10T23:03:20.573Z,93.23
2023-10-10T23:08:04.330Z,93.36
2023-10-10T23:12:07.219Z,93.48
2023-10-10T23:16:32.485Z,93.34
2023-10-10T23:20:53.355Z,93.83
2023-10-10T23:25:02.834Z,94.73
2023-10-10T23:29:16.639Z,93.93
2023-10-10T23:33:22.454Z,94.55
2023-10-10T23:37:36.187Z,94.82
2023-10-10T23:41:44.262Z,94.04
2023-10-10T23:45:55.246Z,94.40
2023-10-10T23:50:27.693Z,94.34
2023-10-10T23:54:38.854Z,95.06
2023-10-10T23:58:52.546Z,94.85
